sensor_id;sensor_type;location;lat;lon;timestamp;pressure;altitude;pressure_sealevel;temperature;humidity
49102;BME280;34913;47.520;19.186;2023-02-12T00:01:44;101109.56;;;3.70;82.66
49102;BME280;34913;47.520;19.186;2023-02-12T00:04:10;101107.78;;;3.71;82.70
49102;BME280;34913;47.520;19.186;2023-02-12T00:06:37;101109.41;;;3.75;82.72
49102;BME280;34913;47.520;19.186;2023-02-12T00:09:03;101107.78;;;3.71;83.06
49102;BME280;34913;47.520;19.186;2023-02-12T00:11:29;101099.91;;;3.71;83.10
49102;BME280;34913;47.520;19.186;2023-02-12T00:13:55;101099.75;;;3.75;83.44
49102;BME280;34913;47.520;19.186;2023-02-12T00:16:25;101104.94;;;3.77;83.27
49102;BME280;34913;47.520;19.186;2023-02-12T00:18:52;101095.00;;;3.85;82.97
49102;BME280;34913;47.520;19.186;2023-02-12T00:21:18;101088.19;;;3.81;82.86
49102;BME280;34913;47.520;19.186;2023-02-12T00:23:44;101099.34;;;3.86;83.15
49102;BME280;34913;47.520;19.186;2023-02-12T00:26:15;101104.00;;;3.79;83.18
49102;BME280;34913;47.520;19.186;2023-02-12T00:28:42;101104.56;;;3.64;83.99
49102;BME280;34913;47.520;19.186;2023-02-12T00:31:11;101108.84;;;3.67;83.99
49102;BME280;34913;47.520;19.186;2023-02-12T00:33:37;101111.59;;;3.63;84.55
49102;BME280;34913;47.520;19.186;2023-02-12T00:36:03;101122.97;;;3.62;83.99
49102;BME280;34913;47.520;19.186;2023-02-12T00:38:29;101110.53;;;3.68;84.17
49102;BME280;34913;47.520;19.186;2023-02-12T00:40:54;101114.78;;;3.72;84.58
49102;BME280;34913;47.520;19.186;2023-02-12T00:43:20;101113.44;;;3.60;84.94
49102;BME280;34913;47.520;19.186;2023-02-12T00:45:46;101114.09;;;3.67;85.06
49102;BME280;34913;47.520;19.186;2023-02-12T00:48:13;101120.13;;;3.69;85.49
49102;BME280;34913;47.520;19.186;2023-02-12T00:50:38;101116.00;;;3.61;85.78
49102;BME280;34913;47.520;19.186;2023-02-12T00:53:06;101115.34;;;3.56;86.31
49102;BME280;34913;47.520;19.186;2023-02-12T00:55:32;101125.59;;;3.62;86.20
49102;BME280;34913;47.520;19.186;2023-02-12T00:57:58;101114.22;;;3.62;86.75
49102;BME280;34913;47.520;19.186;2023-02-12T01:00:23;101115.84;;;3.66;86.90
49102;BME280;34913;47.520;19.186;2023-02-12T01:02:49;101115.66;;;3.71;86.70
49102;BME280;34913;47.520;19.186;2023-02-12T01:05:14;101112.59;;;3.83;85.89
49102;BME280;34913;47.520;19.186;2023-02-12T01:07:40;101107.47;;;3.80;85.78
49102;BME280;34913;47.520;19.186;2023-02-12T01:10:06;101110.47;;;3.69;86.60
49102;BME280;34913;47.520;19.186;2023-02-12T01:12:32;101113.97;;;3.70;86.76
49102;BME280;34913;47.520;19.186;2023-02-12T01:14:58;101107.50;;;3.78;86.75
49102;BME280;34913;47.520;19.186;2023-02-12T01:17:24;101102.22;;;3.80;86.25
49102;BME280;34913;47.520;19.186;2023-02-12T01:19:49;101093.81;;;3.70;87.09
49102;BME280;34913;47.520;19.186;2023-02-12T01:22:15;101094.63;;;3.72;86.80
49102;BME280;34913;47.520;19.186;2023-02-12T01:24:41;101087.53;;;3.74;86.99
49102;BME280;34913;47.520;19.186;2023-02-12T01:27:06;101094.66;;;3.71;87.08
49102;BME280;34913;47.520;19.186;2023-02-12T01:29:32;101087.53;;;3.74;87.16
49102;BME280;34913;47.520;19.186;2023-02-12T01:31:57;101093.78;;;3.72;87.06
49102;BME280;34913;47.520;19.186;2023-02-12T01:34:23;101098.84;;;3.76;87.04
49102;BME280;34913;47.520;19.186;2023-02-12T01:36:48;101106.31;;;3.63;87.17
49102;BME280;34913;47.520;19.186;2023-02-12T01:39:14;101106.28;;;3.65;87.38
49102;BME280;34913;47.520;19.186;2023-02-12T01:41:42;101112.44;;;3.64;87.49
49102;BME280;34913;47.520;19.186;2023-02-12T01:44:22;101116.72;;;3.67;87.34
49102;BME280;34913;47.520;19.186;2023-02-12T01:46:56;101124.84;;;3.59;87.53
49102;BME280;34913;47.520;19.186;2023-02-12T01:49:41;101122.09;;;3.63;87.17
49102;BME280;34913;47.520;19.186;2023-02-12T01:52:18;101112.25;;;3.69;87.04
49102;BME280;34913;47.520;19.186;2023-02-12T01:54:46;101116.59;;;3.70;86.44
49102;BME280;34913;47.520;19.186;2023-02-12T01:57:13;101121.03;;;3.68;86.46
49102;BME280;34913;47.520;19.186;2023-02-12T01:59:40;101124.72;;;3.63;86.25
49102;BME280;34913;47.520;19.186;2023-02-12T02:02:07;101130.97;;;3.59;86.29
49102;BME280;34913;47.520;19.186;2023-02-12T02:04:38;101123.09;;;3.59;86.41
49102;BME280;34913;47.520;19.186;2023-02-12T02:07:05;101119.59;;;3.59;86.39
49102;BME280;34913;47.520;19.186;2023-02-12T02:09:35;101127.75;;;3.51;86.96
49102;BME280;34913;47.520;19.186;2023-02-12T02:12:02;101133.00;;;3.51;86.88
49102;BME280;34913;47.520;19.186;2023-02-12T02:14:47;101129.53;;;3.51;87.07
49102;BME280;34913;47.520;19.186;2023-02-12T02:23:01;101132.16;;;3.51;86.83
49102;BME280;34913;47.520;19.186;2023-02-12T02:25:49;101130.72;;;3.42;87.34
49102;BME280;34913;47.520;19.186;2023-02-12T02:31:13;101139.75;;;3.33;88.03
49102;BME280;34913;47.520;19.186;2023-02-12T02:40:21;101150.00;;;3.41;87.62
49102;BME280;34913;47.520;19.186;2023-02-12T02:43:12;101144.56;;;3.46;87.52
49102;BME280;34913;47.520;19.186;2023-02-12T02:45:42;101140.56;;;3.35;88.15
49102;BME280;34913;47.520;19.186;2023-02-12T02:48:26;101151.00;;;3.37;88.19
49102;BME280;34913;47.520;19.186;2023-02-12T02:51:04;101156.16;;;3.40;87.68
49102;BME280;34913;47.520;19.186;2023-02-12T02:53:38;101158.19;;;3.57;86.70
49102;BME280;34913;47.520;19.186;2023-02-12T02:56:07;101164.56;;;3.50;86.84
49102;BME280;34913;47.520;19.186;2023-02-12T02:58:42;101164.91;;;3.39;86.74
49102;BME280;34913;47.520;19.186;2023-02-12T03:01:21;101162.94;;;3.46;87.05
49102;BME280;34913;47.520;19.186;2023-02-12T03:06:54;101171.31;;;3.32;87.61
49102;BME280;34913;47.520;19.186;2023-02-12T03:12:20;101182.31;;;3.17;88.04
49102;BME280;34913;47.520;19.186;2023-02-12T03:14:56;101180.56;;;3.16;88.58
49102;BME280;34913;47.520;19.186;2023-02-12T03:17:31;101178.84;;;3.15;88.31
49102;BME280;34913;47.520;19.186;2023-02-12T03:20:03;101180.69;;;3.13;88.37
49102;BME280;34913;47.520;19.186;2023-02-12T03:22:35;101190.63;;;3.03;88.42
49102;BME280;34913;47.520;19.186;2023-02-12T03:27:36;101201.03;;;2.78;88.60
49102;BME280;34913;47.520;19.186;2023-02-12T03:30:04;101210.19;;;2.65;89.44
49102;BME280;34913;47.520;19.186;2023-02-12T03:32:39;101207.91;;;2.52;89.48
49102;BME280;34913;47.520;19.186;2023-02-12T03:35:15;101215.97;;;2.46;89.70
49102;BME280;34913;47.520;19.186;2023-02-12T03:43:12;101217.69;;;2.18;90.32
49102;BME280;34913;47.520;19.186;2023-02-12T03:46:07;101221.97;;;2.20;91.01
49102;BME280;34913;47.520;19.186;2023-02-12T03:48:43;101214.84;;;2.26;90.49
49102;BME280;34913;47.520;19.186;2023-02-12T03:51:21;101224.56;;;2.20;90.77
49102;BME280;34913;47.520;19.186;2023-02-12T03:53:48;101225.69;;;2.13;91.28
49102;BME280;34913;47.520;19.186;2023-02-12T03:56:18;101236.22;;;2.10;91.06
49102;BME280;34913;47.520;19.186;2023-02-12T03:58:44;101232.78;;;2.08;91.31
49102;BME280;34913;47.520;19.186;2023-02-12T04:01:11;101246.00;;;2.04;91.02
49102;BME280;34913;47.520;19.186;2023-02-12T04:03:37;101255.91;;;1.92;91.16
49102;BME280;34913;47.520;19.186;2023-02-12T04:06:03;101258.78;;;1.83;90.83
49102;BME280;34913;47.520;19.186;2023-02-12T04:08:30;101253.97;;;1.68;91.66
49102;BME280;34913;47.520;19.186;2023-02-12T04:16:34;101263.94;;;1.52;89.71
49102;BME280;34913;47.520;19.186;2023-02-12T04:19:04;101267.03;;;1.32;88.97
49102;BME280;34913;47.520;19.186;2023-02-12T04:24:36;101281.38;;;1.16;90.54
49102;BME280;34913;47.520;19.186;2023-02-12T04:29:55;101283.19;;;1.14;90.84
49102;BME280;34913;47.520;19.186;2023-02-12T04:32:40;101290.16;;;1.14;90.84
49102;BME280;34913;47.520;19.186;2023-02-12T04:35:21;101287.47;;;1.17;91.53
49102;BME280;34913;47.520;19.186;2023-02-12T04:40:18;101296.53;;;1.02;93.29
49102;BME280;34913;47.520;19.186;2023-02-12T04:42:48;101300.16;;;0.96;93.91
49102;BME280;34913;47.520;19.186;2023-02-12T04:45:27;101310.81;;;0.86;93.62
49102;BME280;34913;47.520;19.186;2023-02-12T04:47:52;101305.72;;;0.81;93.02
49102;BME280;34913;47.520;19.186;2023-02-12T04:50:18;101310.13;;;0.77;93.42
49102;BME280;34913;47.520;19.186;2023-02-12T04:52:44;101317.28;;;0.69;93.86
49102;BME280;34913;47.520;19.186;2023-02-12T04:55:10;101318.13;;;0.70;94.31
49102;BME280;34913;47.520;19.186;2023-02-12T04:57:36;101325.09;;;0.69;93.95
49102;BME280;34913;47.520;19.186;2023-02-12T05:00:03;101318.94;;;0.73;92.65
49102;BME280;34913;47.520;19.186;2023-02-12T05:02:30;101332.09;;;0.69;91.65
49102;BME280;34913;47.520;19.186;2023-02-12T05:04:55;101337.72;;;0.47;91.55
49102;BME280;34913;47.520;19.186;2023-02-12T05:07:21;101337.34;;;0.22;93.27
49102;BME280;34913;47.520;19.186;2023-02-12T05:09:46;101336.50;;;0.22;94.87
49102;BME280;34913;47.520;19.186;2023-02-12T05:12:12;101343.34;;;0.27;94.69
49102;BME280;34913;47.520;19.186;2023-02-12T05:14:37;101349.38;;;0.33;94.14
49102;BME280;34913;47.520;19.186;2023-02-12T05:17:03;101352.00;;;0.30;93.37
49102;BME280;34913;47.520;19.186;2023-02-12T05:19:28;101350.34;;;0.27;93.85
49102;BME280;34913;47.520;19.186;2023-02-12T05:21:54;101359.94;;;0.25;93.24
49102;BME280;34913;47.520;19.186;2023-02-12T05:24:19;101359.97;;;0.23;92.93
49102;BME280;34913;47.520;19.186;2023-02-12T05:26:45;101371.50;;;0.12;93.22
49102;BME280;34913;47.520;19.186;2023-02-12T05:29:10;101372.34;;;0.12;93.23
49102;BME280;34913;47.520;19.186;2023-02-12T05:31:35;101355.88;;;0.10;92.95
49102;BME280;34913;47.520;19.186;2023-02-12T05:34:01;101356.75;;;0.08;92.78
49102;BME280;34913;47.520;19.186;2023-02-12T05:36:26;101360.97;;;0.16;92.73
49102;BME280;34913;47.520;19.186;2023-02-12T05:38:56;101368.78;;;0.18;91.80
49102;BME280;34913;47.520;19.186;2023-02-12T05:41:23;101386.19;;;0.16;91.45
49102;BME280;34913;47.520;19.186;2023-02-12T05:43:49;101375.03;;;0.09;91.96
49102;BME280;34913;47.520;19.186;2023-02-12T05:46:17;101375.84;;;0.11;93.24
49102;BME280;34913;47.520;19.186;2023-02-12T05:48:43;101396.66;;;0.17;93.77
49102;BME280;34913;47.520;19.186;2023-02-12T05:51:14;101398.47;;;0.12;94.87
49102;BME280;34913;47.520;19.186;2023-02-12T05:53:40;101404.69;;;0.04;95.90
49102;BME280;34913;47.520;19.186;2023-02-12T05:56:13;101407.34;;;0.02;96.09
49102;BME280;34913;47.520;19.186;2023-02-12T05:58:41;101405.63;;;0.01;96.71
49102;BME280;34913;47.520;19.186;2023-02-12T06:01:28;101416.16;;;-0.05;97.46
49102;BME280;34913;47.520;19.186;2023-02-12T06:03:54;101421.41;;;-0.07;96.80
49102;BME280;34913;47.520;19.186;2023-02-12T06:06:20;101423.06;;;-0.03;97.58
49102;BME280;34913;47.520;19.186;2023-02-12T06:08:48;101429.06;;;0.04;97.89
49102;BME280;34913;47.520;19.186;2023-02-12T06:11:15;101427.22;;;0.11;97.54
49102;BME280;34913;47.520;19.186;2023-02-12T06:13:41;101443.50;;;0.25;96.92
49102;BME280;34913;47.520;19.186;2023-02-12T06:16:18;101443.50;;;0.23;96.21
49102;BME280;34913;47.520;19.186;2023-02-12T06:18:45;101442.63;;;0.26;96.42
49102;BME280;34913;47.520;19.186;2023-02-12T06:21:11;101456.56;;;0.23;95.58
49102;BME280;34913;47.520;19.186;2023-02-12T06:23:36;101450.72;;;0.11;95.29
49102;BME280;34913;47.520;19.186;2023-02-12T06:26:02;101448.13;;;0.09;96.25
49102;BME280;34913;47.520;19.186;2023-02-12T06:28:27;101453.41;;;0.05;96.39
49102;BME280;34913;47.520;19.186;2023-02-12T06:30:53;101450.88;;;-0.02;96.52
49102;BME280;34913;47.520;19.186;2023-02-12T06:33:18;101457.78;;;0.03;96.98
49102;BME280;34913;47.520;19.186;2023-02-12T06:35:43;101460.25;;;0.12;97.57
49102;BME280;34913;47.520;19.186;2023-02-12T06:38:09;101465.31;;;0.21;97.42
49102;BME280;34913;47.520;19.186;2023-02-12T06:40:35;101478.19;;;0.33;98.54
49102;BME280;34913;47.520;19.186;2023-02-12T06:43:00;101462.28;;;0.45;97.95
49102;BME280;34913;47.520;19.186;2023-02-12T06:45:26;101470.81;;;0.57;99.32
49102;BME280;34913;47.520;19.186;2023-02-12T06:47:51;101479.38;;;0.63;98.89
49102;BME280;34913;47.520;19.186;2023-02-12T06:50:17;101477.44;;;0.74;98.52
49102;BME280;34913;47.520;19.186;2023-02-12T06:52:42;101485.19;;;0.80;97.29
49102;BME280;34913;47.520;19.186;2023-02-12T06:55:08;101487.63;;;0.90;97.15
49102;BME280;34913;47.520;19.186;2023-02-12T06:57:33;101482.28;;;0.96;97.00
49102;BME280;34913;47.520;19.186;2023-02-12T06:59:59;101484.75;;;1.02;96.27
49102;BME280;34913;47.520;19.186;2023-02-12T07:02:24;101486.38;;;1.09;96.29
49102;BME280;34913;47.520;19.186;2023-02-12T07:04:50;101492.41;;;1.13;95.45
49102;BME280;34913;47.520;19.186;2023-02-12T07:07:15;101499.97;;;1.26;95.98
49102;BME280;34913;47.520;19.186;2023-02-12T07:09:41;101500.53;;;1.40;97.58
49102;BME280;34913;47.520;19.186;2023-02-12T07:12:06;101507.06;;;1.63;99.70
49102;BME280;34913;47.520;19.186;2023-02-12T07:14:32;101514.31;;;1.89;100.00
49102;BME280;34913;47.520;19.186;2023-02-12T07:16:57;101514.88;;;2.03;100.00
49102;BME280;34913;47.520;19.186;2023-02-12T07:19:23;101530.13;;;2.23;100.00
49102;BME280;34913;47.520;19.186;2023-02-12T07:21:49;101527.09;;;2.40;99.90
49102;BME280;34913;47.520;19.186;2023-02-12T07:24:15;101529.41;;;2.52;99.20
49102;BME280;34913;47.520;19.186;2023-02-12T07:26:42;101525.59;;;2.65;98.41
49102;BME280;34913;47.520;19.186;2023-02-12T07:29:09;101533.88;;;2.83;98.08
49102;BME280;34913;47.520;19.186;2023-02-12T07:31:35;101536.91;;;3.00;97.03
49102;BME280;34913;47.520;19.186;2023-02-12T07:34:01;101534.72;;;3.17;96.28
49102;BME280;34913;47.520;19.186;2023-02-12T07:36:29;101532.53;;;3.33;95.10
49102;BME280;34913;47.520;19.186;2023-02-12T07:38:56;101549.47;;;3.52;93.54
49102;BME280;34913;47.520;19.186;2023-02-12T07:43:52;101565.06;;;3.86;92.69
49102;BME280;34913;47.520;19.186;2023-02-12T07:46:21;101562.66;;;4.08;91.19
49102;BME280;34913;47.520;19.186;2023-02-12T07:48:47;101557.72;;;4.27;90.22
49102;BME280;34913;47.520;19.186;2023-02-12T07:51:15;101559.81;;;4.44;89.63
49102;BME280;34913;47.520;19.186;2023-02-12T07:53:43;101555.72;;;4.62;87.81
49102;BME280;34913;47.520;19.186;2023-02-12T07:56:22;101552.50;;;4.79;86.67
49102;BME280;34913;47.520;19.186;2023-02-12T07:58:50;101555.22;;;5.02;85.71
49102;BME280;34913;47.520;19.186;2023-02-12T08:01:24;101561.66;;;5.18;84.71
49102;BME280;34913;47.520;19.186;2023-02-12T08:03:51;101568.03;;;5.36;83.09
49102;BME280;34913;47.520;19.186;2023-02-12T08:08:45;101583.94;;;5.58;80.99
49102;BME280;34913;47.520;19.186;2023-02-12T08:11:12;101586.06;;;5.72;80.65
49102;BME280;34913;47.520;19.186;2023-02-12T08:13:38;101578.88;;;5.75;79.96
49102;BME280;34913;47.520;19.186;2023-02-12T08:16:06;101583.47;;;5.95;78.65
49102;BME280;34913;47.520;19.186;2023-02-12T08:18:33;101585.75;;;6.04;76.77
49102;BME280;34913;47.520;19.186;2023-02-12T08:21:05;101585.16;;;6.20;76.49
49102;BME280;34913;47.520;19.186;2023-02-12T08:23:34;101589.84;;;6.11;75.87
49102;BME280;34913;47.520;19.186;2023-02-12T08:28:34;101580.44;;;6.28;75.94
49102;BME280;34913;47.520;19.186;2023-02-12T08:31:07;101591.69;;;6.31;76.12
49102;BME280;34913;47.520;19.186;2023-02-12T08:33:33;101593.06;;;6.41;75.51
49102;BME280;34913;47.520;19.186;2023-02-12T08:36:03;101585.66;;;6.51;75.27
49102;BME280;34913;47.520;19.186;2023-02-12T08:38:30;101591.41;;;6.61;73.97
49102;BME280;34913;47.520;19.186;2023-02-12T08:40:59;101596.91;;;6.77;73.97
49102;BME280;34913;47.520;19.186;2023-02-12T08:43:26;101597.06;;;6.94;72.90
49102;BME280;34913;47.520;19.186;2023-02-12T08:45:51;101595.81;;;7.03;73.41
49102;BME280;34913;47.520;19.186;2023-02-12T08:48:17;101597.28;;;7.10;71.75
49102;BME280;34913;47.520;19.186;2023-02-12T08:50:45;101598.81;;;7.15;71.13
49102;BME280;34913;47.520;19.186;2023-02-12T08:53:10;101596.69;;;7.23;71.36
49102;BME280;34913;47.520;19.186;2023-02-12T08:55:36;101599.53;;;7.39;70.55
49102;BME280;34913;47.520;19.186;2023-02-12T08:58:01;101607.56;;;7.56;69.99
49102;BME280;34913;47.520;19.186;2023-02-12T09:00:28;101611.75;;;7.81;68.80
49102;BME280;34913;47.520;19.186;2023-02-12T09:02:53;101603.03;;;7.98;68.04
49102;BME280;34913;47.520;19.186;2023-02-12T09:05:19;101611.13;;;7.95;67.70
49102;BME280;34913;47.520;19.186;2023-02-12T09:07:44;101616.63;;;7.90;67.45
49102;BME280;34913;47.520;19.186;2023-02-12T09:10:10;101625.22;;;8.14;67.29
49102;BME280;34913;47.520;19.186;2023-02-12T09:12:35;101631.28;;;8.16;66.09
49102;BME280;34913;47.520;19.186;2023-02-12T09:15:01;101612.91;;;7.94;66.60
49102;BME280;34913;47.520;19.186;2023-02-12T09:17:26;101645.81;;;8.07;66.53
49102;BME280;34913;47.520;19.186;2023-02-12T09:19:53;101646.00;;;8.03;66.71
49102;BME280;34913;47.520;19.186;2023-02-12T09:22:18;101651.31;;;8.22;66.37
49102;BME280;34913;47.520;19.186;2023-02-12T09:24:44;101643.16;;;8.26;65.66
49102;BME280;34913;47.520;19.186;2023-02-12T09:27:09;101642.94;;;8.31;65.86
49102;BME280;34913;47.520;19.186;2023-02-12T09:29:35;101643.72;;;8.33;66.12
49102;BME280;34913;47.520;19.186;2023-02-12T09:32:00;101645.09;;;8.42;65.03
49102;BME280;34913;47.520;19.186;2023-02-12T09:34:29;101649.09;;;8.50;64.40
49102;BME280;34913;47.520;19.186;2023-02-12T09:36:58;101643.81;;;8.50;64.83
49102;BME280;34913;47.520;19.186;2023-02-12T09:39:23;101652.41;;;8.55;64.07
49102;BME280;34913;47.520;19.186;2023-02-12T09:47:24;101652.53;;;9.25;62.32
49102;BME280;34913;47.520;19.186;2023-02-12T09:52:44;101661.22;;;9.09;62.68
49102;BME280;34913;47.520;19.186;2023-02-12T09:55:15;101663.53;;;8.98;62.45
49102;BME280;34913;47.520;19.186;2023-02-12T09:57:42;101643.84;;;9.21;62.00
49102;BME280;34913;47.520;19.186;2023-02-12T10:00:13;101651.03;;;9.19;61.52
49102;BME280;34913;47.520;19.186;2023-02-12T10:02:40;101655.47;;;9.36;61.67
49102;BME280;34913;47.520;19.186;2023-02-12T10:05:24;101658.88;;;9.72;60.29
49102;BME280;34913;47.520;19.186;2023-02-12T10:08:09;101658.38;;;9.82;59.15
49102;BME280;34913;47.520;19.186;2023-02-12T10:16:19;101666.16;;;9.85;58.12
49102;BME280;34913;47.520;19.186;2023-02-12T10:18:53;101677.56;;;9.69;58.65
49102;BME280;34913;47.520;19.186;2023-02-12T10:26:37;101678.53;;;9.51;57.82
49102;BME280;34913;47.520;19.186;2023-02-12T10:31:45;101684.91;;;9.47;58.47
49102;BME280;34913;47.520;19.186;2023-02-12T10:34:19;101681.16;;;9.68;57.78
49102;BME280;34913;47.520;19.186;2023-02-12T10:36:47;101683.41;;;9.76;57.63
49102;BME280;34913;47.520;19.186;2023-02-12T10:39:30;101684.91;;;9.82;56.82
49102;BME280;34913;47.520;19.186;2023-02-12T10:42:08;101689.22;;;10.00;56.61
49102;BME280;34913;47.520;19.186;2023-02-12T10:44:35;101693.28;;;10.07;56.60
49102;BME280;34913;47.520;19.186;2023-02-12T10:47:01;101688.91;;;9.73;56.76
49102;BME280;34913;47.520;19.186;2023-02-12T10:49:30;101689.69;;;9.40;58.00
49102;BME280;34913;47.520;19.186;2023-02-12T10:52:10;101694.28;;;9.19;58.41
49102;BME280;34913;47.520;19.186;2023-02-12T10:59:51;101686.78;;;9.10;58.82
49102;BME280;34913;47.520;19.186;2023-02-12T11:02:37;101680.56;;;8.92;59.47
49102;BME280;34913;47.520;19.186;2023-02-12T11:05:23;101689.72;;;9.04;59.52
49102;BME280;34913;47.520;19.186;2023-02-12T11:07:50;101684.81;;;9.14;59.30
49102;BME280;34913;47.520;19.186;2023-02-12T11:10:24;101684.69;;;9.17;58.29
49102;BME280;34913;47.520;19.186;2023-02-12T11:12:52;101683.88;;;8.98;59.30
49102;BME280;34913;47.520;19.186;2023-02-12T11:15:31;101685.38;;;9.03;59.20
49102;BME280;34913;47.520;19.186;2023-02-12T11:18:28;101681.34;;;9.31;57.66
49102;BME280;34913;47.520;19.186;2023-02-12T11:21:08;101681.25;;;9.67;56.20
49102;BME280;34913;47.520;19.186;2023-02-12T11:23:42;101681.63;;;10.10;55.67
49102;BME280;34913;47.520;19.186;2023-02-12T11:29:02;101684.47;;;10.55;53.38
49102;BME280;34913;47.520;19.186;2023-02-12T11:31:32;101687.00;;;10.25;54.27
49102;BME280;34913;47.520;19.186;2023-02-12T11:34:11;101681.22;;;10.17;54.99
49102;BME280;34913;47.520;19.186;2023-02-12T11:36:41;101677.44;;;10.54;54.06
49102;BME280;34913;47.520;19.186;2023-02-12T11:39:25;101689.41;;;10.93;52.13
49102;BME280;34913;47.520;19.186;2023-02-12T11:41:54;101683.28;;;10.61;53.22
49102;BME280;34913;47.520;19.186;2023-02-12T11:44:25;101685.84;;;10.62;53.29
49102;BME280;34913;47.520;19.186;2023-02-12T11:47:02;101690.53;;;10.57;53.54
49102;BME280;34913;47.520;19.186;2023-02-12T11:49:37;101675.41;;;10.59;54.16
49102;BME280;34913;47.520;19.186;2023-02-12T11:52:03;101688.72;;;10.42;53.26
49102;BME280;34913;47.520;19.186;2023-02-12T11:54:35;101687.84;;;10.26;53.81
49102;BME280;34913;47.520;19.186;2023-02-12T11:57:03;101682.50;;;9.60;54.18
49102;BME280;34913;47.520;19.186;2023-02-12T11:59:39;101684.97;;;9.63;54.49
49102;BME280;34913;47.520;19.186;2023-02-12T12:02:23;101687.81;;;9.42;54.96
49102;BME280;34913;47.520;19.186;2023-02-12T12:04:55;101679.88;;;9.42;55.09
49102;BME280;34913;47.520;19.186;2023-02-12T12:07:32;101677.75;;;9.66;56.49
49102;BME280;34913;47.520;19.186;2023-02-12T12:10:04;101685.38;;;9.55;56.90
49102;BME280;34913;47.520;19.186;2023-02-12T12:12:39;101678.78;;;9.64;56.63
49102;BME280;34913;47.520;19.186;2023-02-12T12:15:42;101673.97;;;9.70;57.22
49102;BME280;34913;47.520;19.186;2023-02-12T12:21:33;101663.78;;;9.63;56.70
49102;BME280;34913;47.520;19.186;2023-02-12T12:26:39;101668.31;;;10.11;55.42
49102;BME280;34913;47.520;19.186;2023-02-12T12:29:15;101672.63;;;9.96;57.54
49102;BME280;34913;47.520;19.186;2023-02-12T12:31:48;101669.88;;;9.65;59.19
49102;BME280;34913;47.520;19.186;2023-02-12T12:34:18;101671.09;;;9.06;60.46
49102;BME280;34913;47.520;19.186;2023-02-12T12:37:06;101666.84;;;9.20;59.89
49102;BME280;34913;47.520;19.186;2023-02-12T12:48:24;101679.34;;;8.45;61.58
49102;BME280;34913;47.520;19.186;2023-02-12T13:04:39;101682.53;;;8.13;62.44
49102;BME280;34913;47.520;19.186;2023-02-12T13:07:11;101681.47;;;7.99;62.61
49102;BME280;34913;47.520;19.186;2023-02-12T13:15:20;101678.22;;;7.92;62.57
49102;BME280;34913;47.520;19.186;2023-02-12T13:23:33;101680.97;;;8.09;62.33
49102;BME280;34913;47.520;19.186;2023-02-12T13:28:54;101681.81;;;8.29;61.14
49102;BME280;34913;47.520;19.186;2023-02-12T13:31:23;101684.22;;;8.35;61.29
49102;BME280;34913;47.520;19.186;2023-02-12T13:34:01;101682.38;;;8.56;60.29
49102;BME280;34913;47.520;19.186;2023-02-12T13:36:28;101692.66;;;8.62;59.99
49102;BME280;34913;47.520;19.186;2023-02-12T13:39:28;101688.66;;;8.53;60.07
49102;BME280;34913;47.520;19.186;2023-02-12T13:47:57;101692.66;;;8.98;58.85
49102;BME280;34913;47.520;19.186;2023-02-12T13:50:39;101689.44;;;9.10;58.06
49102;BME280;34913;47.520;19.186;2023-02-12T13:58:56;101690.72;;;8.65;59.71
49102;BME280;34913;47.520;19.186;2023-02-12T14:04:27;101691.94;;;8.77;59.92
49102;BME280;34913;47.520;19.186;2023-02-12T14:07:00;101693.00;;;8.73;59.87
49102;BME280;34913;47.520;19.186;2023-02-12T14:10:17;101691.78;;;8.80;59.57
49102;BME280;34913;47.520;19.186;2023-02-12T14:12:25;101693.44;;;8.64;59.70
49102;BME280;34913;47.520;19.186;2023-02-12T14:17:52;101690.59;;;8.50;60.24
49102;BME280;34913;47.520;19.186;2023-02-12T14:20:34;101680.78;;;8.52;60.00
49102;BME280;34913;47.520;19.186;2023-02-12T14:23:36;101681.44;;;8.38;60.75
49102;BME280;34913;47.520;19.186;2023-02-12T14:26:14;101692.34;;;8.30;60.82
49102;BME280;34913;47.520;19.186;2023-02-12T14:28:42;101688.97;;;8.27;61.11
49102;BME280;34913;47.520;19.186;2023-02-12T14:33:48;101701.34;;;8.26;60.67
49102;BME280;34913;47.520;19.186;2023-02-12T14:39:43;101701.16;;;7.92;61.48
49102;BME280;34913;47.520;19.186;2023-02-12T14:41:54;101704.06;;;7.86;61.58
49102;BME280;34913;47.520;19.186;2023-02-12T14:52:01;101704.91;;;7.86;61.42
49102;BME280;34913;47.520;19.186;2023-02-12T14:54:34;101710.13;;;7.88;61.38
49102;BME280;34913;47.520;19.186;2023-02-12T14:57:26;101709.44;;;7.84;61.27
49102;BME280;34913;47.520;19.186;2023-02-12T15:00:02;101706.03;;;7.80;61.59
49102;BME280;34913;47.520;19.186;2023-02-12T15:02:33;101707.31;;;7.92;61.16
49102;BME280;34913;47.520;19.186;2023-02-12T15:05:10;101706.44;;;7.92;60.81
49102;BME280;34913;47.520;19.186;2023-02-12T15:07:57;101706.72;;;7.86;61.15
49102;BME280;34913;47.520;19.186;2023-02-12T15:10:29;101703.41;;;7.80;61.52
49102;BME280;34913;47.520;19.186;2023-02-12T15:13:18;101710.53;;;7.78;61.69
49102;BME280;34913;47.520;19.186;2023-02-12T15:16:13;101712.34;;;7.78;61.21
49102;BME280;34913;47.520;19.186;2023-02-12T15:19:41;101720.84;;;7.84;61.48
49102;BME280;34913;47.520;19.186;2023-02-12T15:21:36;101713.94;;;7.82;61.36
49102;BME280;34913;47.520;19.186;2023-02-12T15:26:41;101717.09;;;7.70;61.87
49102;BME280;34913;47.520;19.186;2023-02-12T15:29:25;101720.91;;;7.63;62.16
49102;BME280;34913;47.520;19.186;2023-02-12T15:31:57;101718.66;;;7.74;61.68
49102;BME280;34913;47.520;19.186;2023-02-12T15:34:27;101719.94;;;7.86;60.87
49102;BME280;34913;47.520;19.186;2023-02-12T15:36:56;101715.16;;;7.73;61.61
49102;BME280;34913;47.520;19.186;2023-02-12T15:39:23;101716.03;;;7.74;61.16
49102;BME280;34913;47.520;19.186;2023-02-12T15:41:49;101713.91;;;7.62;61.84
49102;BME280;34913;47.520;19.186;2023-02-12T15:46:57;101724.28;;;7.46;62.47